sensor_id;sensor_type;location;lat;lon;timestamp;temperature;humidity
63277;DHT22;49403;51.046;13.780;2024-02-26T00:00:21;7.80;81.50
63277;DHT22;49403;51.046;13.780;2024-02-26T00:00:51;7.80;81.40
63277;DHT22;49403;51.046;13.780;2024-02-26T00:01:22;7.80;81.50
63277;DHT22;49403;51.046;13.780;2024-02-26T00:01:53;7.80;81.50
63277;DHT22;49403;51.046;13.780;2024-02-26T00:02:24;7.80;81.50
63277;DHT22;49403;51.046;13.780;2024-02-26T00:02:55;7.70;81.40
63277;DHT22;49403;51.046;13.780;2024-02-26T00:03:26;7.70;81.30
63277;DHT22;49403;51.046;13.780;2024-02-26T00:03:56;7.70;81.30
63277;DHT22;49403;51.046;13.780;2024-02-26T00:04:30;7.70;81.30
63277;DHT22;49403;51.046;13.780;2024-02-26T00:05:00;7.70;81.10
63277;DHT22;49403;51.046;13.780;2024-02-26T00:05:31;6.80;80.40
63277;DHT22;49403;51.046;13.780;2024-02-26T00:06:02;7.70;81.40
63277;DHT22;49403;51.046;13.780;2024-02-26T00:06:33;7.60;81.20
63277;DHT22;49403;51.046;13.780;2024-02-26T00:07:04;7.80;81.30
63277;DHT22;49403;51.046;13.780;2024-02-26T00:07:35;7.70;81.30
63277;DHT22;49403;51.046;13.780;2024-02-26T00:08:06;7.70;81.30
63277;DHT22;49403;51.046;13.780;2024-02-26T00:08:37;7.80;81.50
63277;DHT22;49403;51.046;13.780;2024-02-26T00:09:08;7.70;81.30
63277;DHT22;49403;51.046;13.780;2024-02-26T00:09:39;7.80;81.30
63277;DHT22;49403;51.046;13.780;2024-02-26T00:10:10;7.70;81.50
63277;DHT22;49403;51.046;13.780;2024-02-26T00:10:41;7.60;81.40
63277;DHT22;49403;51.046;13.780;2024-02-26T00:11:12;7.70;81.60
63277;DHT22;49403;51.046;13.780;2024-02-26T00:11:43;7.70;81.80
63277;DHT22;49403;51.046;13.780;2024-02-26T00:12:14;7.70;81.80
63277;DHT22;49403;51.046;13.780;2024-02-26T00:12:45;7.70;81.80
63277;DHT22;49403;51.046;13.780;2024-02-26T00:13:15;7.40;81.40
63277;DHT22;49403;51.046;13.780;2024-02-26T00:13:46;7.70;81.70
63277;DHT22;49403;51.046;13.780;2024-02-26T00:14:17;7.60;81.60
63277;DHT22;49403;51.046;13.780;2024-02-26T00:14:48;7.30;81.40
63277;DHT22;49403;51.046;13.780;2024-02-26T00:15:20;7.70;81.80
63277;DHT22;49403;51.046;13.780;2024-02-26T00:15:50;7.70;82.00
63277;DHT22;49403;51.046;13.780;2024-02-26T00:16:21;7.70;81.90
63277;DHT22;49403;51.046;13.780;2024-02-26T00:16:52;7.70;81.90
63277;DHT22;49403;51.046;13.780;2024-02-26T00:17:23;7.60;81.90
63277;DHT22;49403;51.046;13.780;2024-02-26T00:17:54;7.60;81.70
63277;DHT22;49403;51.046;13.780;2024-02-26T00:18:25;7.60;82.10
63277;DHT22;49403;51.046;13.780;2024-02-26T00:18:56;7.60;82.20
63277;DHT22;49403;51.046;13.780;2024-02-26T00:19:27;7.50;82.20
63277;DHT22;49403;51.046;13.780;2024-02-26T00:19:58;7.50;82.40
63277;DHT22;49403;51.046;13.780;2024-02-26T00:20:28;6.10;81.10
63277;DHT22;49403;51.046;13.780;2024-02-26T00:20:59;7.50;82.60
63277;DHT22;49403;51.046;13.780;2024-02-26T00:21:31;7.50;82.60
63277;DHT22;49403;51.046;13.780;2024-02-26T00:22:02;7.40;82.60
63277;DHT22;49403;51.046;13.780;2024-02-26T00:22:32;7.40;82.60
63277;DHT22;49403;51.046;13.780;2024-02-26T00:23:03;7.10;82.40
63277;DHT22;49403;51.046;13.780;2024-02-26T00:23:34;7.40;82.80
63277;DHT22;49403;51.046;13.780;2024-02-26T00:24:05;7.40;82.70
63277;DHT22;49403;51.046;13.780;2024-02-26T00:24:36;7.50;82.70
63277;DHT22;49403;51.046;13.780;2024-02-26T00:25:07;7.40;82.90
63277;DHT22;49403;51.046;13.780;2024-02-26T00:25:37;7.40;82.80
63277;DHT22;49403;51.046;13.780;2024-02-26T00:26:08;7.40;82.80
63277;DHT22;49403;51.046;13.780;2024-02-26T00:26:41;7.50;83.00
63277;DHT22;49403;51.046;13.780;2024-02-26T00:27:12;7.50;83.10
63277;DHT22;49403;51.046;13.780;2024-02-26T00:27:42;7.40;82.70
63277;DHT22;49403;51.046;13.780;2024-02-26T00:28:14;7.50;82.70
63277;DHT22;49403;51.046;13.780;2024-02-26T00:28:45;7.50;83.30
63277;DHT22;49403;51.046;13.780;2024-02-26T00:29:16;7.50;82.50
63277;DHT22;49403;51.046;13.780;2024-02-26T00:29:47;7.40;82.40
63277;DHT22;49403;51.046;13.780;2024-02-26T00:30:17;7.40;82.30
63277;DHT22;49403;51.046;13.780;2024-02-26T00:30:48;7.40;82.20
63277;DHT22;49403;51.046;13.780;2024-02-26T00:31:19;7.00;82.00
63277;DHT22;49403;51.046;13.780;2024-02-26T00:31:50;7.40;82.30
63277;DHT22;49403;51.046;13.780;2024-02-26T00:32:21;7.40;82.10
63277;DHT22;49403;51.046;13.780;2024-02-26T00:32:51;7.40;82.20
63277;DHT22;49403;51.046;13.780;2024-02-26T00:33:22;7.40;82.30
63277;DHT22;49403;51.046;13.780;2024-02-26T00:33:53;7.40;82.30
63277;DHT22;49403;51.046;13.780;2024-02-26T00:34:24;7.30;82.30
63277;DHT22;49403;51.046;13.780;2024-02-26T00:34:55;7.40;82.40
63277;DHT22;49403;51.046;13.780;2024-02-26T00:35:26;7.40;82.40
63277;DHT22;49403;51.046;13.780;2024-02-26T00:35:56;7.40;82.40
63277;DHT22;49403;51.046;13.780;2024-02-26T00:36:27;7.40;82.50
63277;DHT22;49403;51.046;13.780;2024-02-26T00:36:58;7.40;82.60
63277;DHT22;49403;51.046;13.780;2024-02-26T00:37:29;7.40;82.60
63277;DHT22;49403;51.046;13.780;2024-02-26T00:38:00;7.40;82.60
63277;DHT22;49403;51.046;13.780;2024-02-26T00:38:32;7.40;82.50
63277;DHT22;49403;51.046;13.780;2024-02-26T00:39:03;7.30;82.40
63277;DHT22;49403;51.046;13.780;2024-02-26T00:39:34;7.40;82.40
63277;DHT22;49403;51.046;13.780;2024-02-26T00:40:05;7.40;82.40
63277;DHT22;49403;51.046;13.780;2024-02-26T00:40:37;7.00;81.80
63277;DHT22;49403;51.046;13.780;2024-02-26T00:41:08;7.20;82.20
63277;DHT22;49403;51.046;13.780;2024-02-26T00:41:40;7.50;82.50
63277;DHT22;49403;51.046;13.780;2024-02-26T00:42:11;7.40;82.10
63277;DHT22;49403;51.046;13.780;2024-02-26T00:42:42;7.40;82.40
63277;DHT22;49403;51.046;13.780;2024-02-26T00:43:16;7.40;82.40
63277;DHT22;49403;51.046;13.780;2024-02-26T00:43:47;7.40;82.20
63277;DHT22;49403;51.046;13.780;2024-02-26T00:44:18;7.40;82.20
63277;DHT22;49403;51.046;13.780;2024-02-26T00:44:49;7.30;82.20
63277;DHT22;49403;51.046;13.780;2024-02-26T00:45:20;7.40;82.30
63277;DHT22;49403;51.046;13.780;2024-02-26T00:45:50;7.30;82.10
63277;DHT22;49403;51.046;13.780;2024-02-26T00:46:23;7.40;82.20
63277;DHT22;49403;51.046;13.780;2024-02-26T00:46:53;7.40;82.30
63277;DHT22;49403;51.046;13.780;2024-02-26T00:47:24;7.40;82.20
63277;DHT22;49403;51.046;13.780;2024-02-26T00:47:55;8.40;83.30
63277;DHT22;49403;51.046;13.780;2024-02-26T00:48:26;7.40;82.20
63277;DHT22;49403;51.046;13.780;2024-02-26T00:48:57;8.40;83.10
63277;DHT22;49403;51.046;13.780;2024-02-26T00:49:27;6.40;81.30
63277;DHT22;49403;51.046;13.780;2024-02-26T00:49:58;7.30;82.20
63277;DHT22;49403;51.046;13.780;2024-02-26T00:50:29;8.00;82.80
63277;DHT22;49403;51.046;13.780;2024-02-26T00:51:00;7.30;81.90
63277;DHT22;49403;51.046;13.780;2024-02-26T00:51:31;7.30;82.10
63277;DHT22;49403;51.046;13.780;2024-02-26T00:52:02;7.20;82.10
63277;DHT22;49403;51.046;13.780;2024-02-26T00:52:33;7.30;82.30
63277;DHT22;49403;51.046;13.780;2024-02-26T00:53:03;7.30;82.20
63277;DHT22;49403;51.046;13.780;2024-02-26T00:53:34;7.40;82.40
63277;DHT22;49403;51.046;13.780;2024-02-26T00:54:05;7.30;82.20
63277;DHT22;49403;51.046;13.780;2024-02-26T00:54:36;7.30;82.10
63277;DHT22;49403;51.046;13.780;2024-02-26T00:55:07;7.30;82.20
63277;DHT22;49403;51.046;13.780;2024-02-26T00:55:38;7.20;82.30
63277;DHT22;49403;51.046;13.780;2024-02-26T00:56:09;7.20;82.30
63277;DHT22;49403;51.046;13.780;2024-02-26T00:56:39;7.20;82.30
63277;DHT22;49403;51.046;13.780;2024-02-26T00:57:10;7.20;82.40
63277;DHT22;49403;51.046;13.780;2024-02-26T00:57:42;7.20;82.50
63277;DHT22;49403;51.046;13.780;2024-02-26T00:58:12;7.20;82.60
63277;DHT22;49403;51.046;13.780;2024-02-26T00:58:43;7.20;82.50
63277;DHT22;49403;51.046;13.780;2024-02-26T00:59:14;7.20;82.50
63277;DHT22;49403;51.046;13.780;2024-02-26T00:59:45;7.20;82.60
63277;DHT22;49403;51.046;13.780;2024-02-26T01:00:16;7.10;82.60
63277;DHT22;49403;51.046;13.780;2024-02-26T01:00:47;7.10;82.50
63277;DHT22;49403;51.046;13.780;2024-02-26T01:01:18;7.10;82.60
63277;DHT22;49403;51.046;13.780;2024-02-26T01:01:49;7.10;82.70
63277;DHT22;49403;51.046;13.780;2024-02-26T01:02:19;7.10;82.70
63277;DHT22;49403;51.046;13.780;2024-02-26T01:02:50;7.00;82.70
63277;DHT22;49403;51.046;13.780;2024-02-26T01:03:21;7.10;83.00
63277;DHT22;49403;51.046;13.780;2024-02-26T01:03:52;7.00;83.10
63277;DHT22;49403;51.046;13.780;2024-02-26T01:04:23;7.00;83.20
63277;DHT22;49403;51.046;13.780;2024-02-26T01:04:53;7.00;83.30
63277;DHT22;49403;51.046;13.780;2024-02-26T01:05:24;7.00;83.30
63277;DHT22;49403;51.046;13.780;2024-02-26T01:05:55;7.00;83.40
63277;DHT22;49403;51.046;13.780;2024-02-26T01:06:26;7.00;83.40
63277;DHT22;49403;51.046;13.780;2024-02-26T01:06:57;7.00;83.40
63277;DHT22;49403;51.046;13.780;2024-02-26T01:07:27;7.00;83.50
63277;DHT22;49403;51.046;13.780;2024-02-26T01:07:58;7.00;83.50
63277;DHT22;49403;51.046;13.780;2024-02-26T01:08:29;7.00;83.50
63277;DHT22;49403;51.046;13.780;2024-02-26T01:09:00;7.00;83.40
63277;DHT22;49403;51.046;13.780;2024-02-26T01:09:31;7.00;83.50
63277;DHT22;49403;51.046;13.780;2024-02-26T01:10:02;7.00;83.70
63277;DHT22;49403;51.046;13.780;2024-02-26T01:10:33;7.00;83.40
63277;DHT22;49403;51.046;13.780;2024-02-26T01:11:04;7.00;83.70
63277;DHT22;49403;51.046;13.780;2024-02-26T01:11:35;7.00;83.70
63277;DHT22;49403;51.046;13.780;2024-02-26T01:12:06;6.90;83.40
63277;DHT22;49403;51.046;13.780;2024-02-26T01:12:37;7.00;83.90
63277;DHT22;49403;51.046;13.780;2024-02-26T01:13:08;7.00;83.90
63277;DHT22;49403;51.046;13.780;2024-02-26T01:13:39;7.00;83.90
63277;DHT22;49403;51.046;13.780;2024-02-26T01:14:09;7.00;83.70
63277;DHT22;49403;51.046;13.780;2024-02-26T01:14:40;6.60;83.30
63277;DHT22;49403;51.046;13.780;2024-02-26T01:15:11;6.90;83.50
63277;DHT22;49403;51.046;13.780;2024-02-26T01:15:42;7.00;83.70
63277;DHT22;49403;51.046;13.780;2024-02-26T01:16:14;7.00;83.70
63277;DHT22;49403;51.046;13.780;2024-02-26T01:16:45;7.00;83.70
63277;DHT22;49403;51.046;13.780;2024-02-26T01:17:16;7.00;83.70
63277;DHT22;49403;51.046;13.780;2024-02-26T01:17:46;7.00;83.70
63277;DHT22;49403;51.046;13.780;2024-02-26T01:18:17;7.00;84.00
63277;DHT22;49403;51.046;13.780;2024-02-26T01:18:48;7.00;84.00
63277;DHT22;49403;51.046;13.780;2024-02-26T01:19:19;7.10;84.00
63277;DHT22;49403;51.046;13.780;2024-02-26T01:19:50;7.00;83.90
63277;DHT22;49403;51.046;13.780;2024-02-26T01:20:21;7.00;84.00
63277;DHT22;49403;51.046;13.780;2024-02-26T01:20:51;7.00;84.10
63277;DHT22;49403;51.046;13.780;2024-02-26T01:21:24;7.00;84.10
63277;DHT22;49403;51.046;13.780;2024-02-26T01:21:57;7.00;84.20
63277;DHT22;49403;51.046;13.780;2024-02-26T01:22:28;7.00;84.40
63277;DHT22;49403;51.046;13.780;2024-02-26T01:22:58;7.00;84.40
63277;DHT22;49403;51.046;13.780;2024-02-26T01:23:29;7.00;84.40
63277;DHT22;49403;51.046;13.780;2024-02-26T01:24:00;7.00;84.40
63277;DHT22;49403;51.046;13.780;2024-02-26T01:24:31;7.00;84.40
63277;DHT22;49403;51.046;13.780;2024-02-26T01:25:02;7.00;84.60
63277;DHT22;49403;51.046;13.780;2024-02-26T01:25:32;7.00;84.60
63277;DHT22;49403;51.046;13.780;2024-02-26T01:26:03;7.00;84.60
63277;DHT22;49403;51.046;13.780;2024-02-26T01:26:35;7.00;84.70
63277;DHT22;49403;51.046;13.780;2024-02-26T01:27:06;6.50;84.20
63277;DHT22;49403;51.046;13.780;2024-02-26T01:27:38;7.00;84.80
63277;DHT22;49403;51.046;13.780;2024-02-26T01:28:10;7.00;84.50
63277;DHT22;49403;51.046;13.780;2024-02-26T01:28:40;7.00;85.10
63277;DHT22;49403;51.046;13.780;2024-02-26T01:29:11;7.00;85.10
63277;DHT22;49403;51.046;13.780;2024-02-26T01:29:42;7.00;84.80
63277;DHT22;49403;51.046;13.780;2024-02-26T01:30:13;7.00;85.00
63277;DHT22;49403;51.046;13.780;2024-02-26T01:30:46;7.00;85.00
63277;DHT22;49403;51.046;13.780;2024-02-26T01:31:17;6.90;84.90
63277;DHT22;49403;51.046;13.780;2024-02-26T01:31:48;7.00;85.10
63277;DHT22;49403;51.046;13.780;2024-02-26T01:32:19;6.90;85.70
63277;DHT22;49403;51.046;13.780;2024-02-26T01:32:50;6.90;85.80
63277;DHT22;49403;51.046;13.780;2024-02-26T01:33:21;6.50;84.90
63277;DHT22;49403;51.046;13.780;2024-02-26T01:33:51;6.90;85.40
63277;DHT22;49403;51.046;13.780;2024-02-26T01:34:23;6.90;85.30
63277;DHT22;49403;51.046;13.780;2024-02-26T01:34:54;6.90;85.20
63277;DHT22;49403;51.046;13.780;2024-02-26T01:35:24;6.90;85.30
63277;DHT22;49403;51.046;13.780;2024-02-26T01:35:55;6.90;85.40
63277;DHT22;49403;51.046;13.780;2024-02-26T01:36:26;6.90;85.30
63277;DHT22;49403;51.046;13.780;2024-02-26T01:36:57;6.80;85.20
63277;DHT22;49403;51.046;13.780;2024-02-26T01:37:28;6.80;85.30
63277;DHT22;49403;51.046;13.780;2024-02-26T01:38:00;6.80;85.30
63277;DHT22;49403;51.046;13.780;2024-02-26T01:38:31;6.80;85.50
63277;DHT22;49403;51.046;13.780;2024-02-26T01:39:02;6.90;85.30
63277;DHT22;49403;51.046;13.780;2024-02-26T01:39:34;6.90;85.70
63277;DHT22;49403;51.046;13.780;2024-02-26T01:40:05;6.80;85.60
63277;DHT22;49403;51.046;13.780;2024-02-26T01:40:37;6.80;85.20
63277;DHT22;49403;51.046;13.780;2024-02-26T01:41:08;6.90;85.70
63277;DHT22;49403;51.046;13.780;2024-02-26T01:41:39;6.90;85.50
63277;DHT22;49403;51.046;13.780;2024-02-26T01:42:10;6.90;85.20
63277;DHT22;49403;51.046;13.780;2024-02-26T01:42:41;6.90;85.40
63277;DHT22;49403;51.046;13.780;2024-02-26T01:43:12;6.90;85.30
63277;DHT22;49403;51.046;13.780;2024-02-26T01:43:43;6.90;85.30
63277;DHT22;49403;51.046;13.780;2024-02-26T01:44:14;6.90;85.20
63277;DHT22;49403;51.046;13.780;2024-02-26T01:44:44;6.90;85.20
63277;DHT22;49403;51.046;13.780;2024-02-26T01:45:16;6.90;85.20
63277;DHT22;49403;51.046;13.780;2024-02-26T01:45:52;6.90;85.00
63277;DHT22;49403;51.046;13.780;2024-02-26T01:46:23;6.90;85.10
63277;DHT22;49403;51.046;13.780;2024-02-26T01:46:54;6.90;84.90
63277;DHT22;49403;51.046;13.780;2024-02-26T01:47:26;6.90;84.80
63277;DHT22;49403;51.046;13.780;2024-02-26T01:47:57;6.90;84.70
63277;DHT22;49403;51.046;13.780;2024-02-26T01:48:28;6.90;85.00
63277;DHT22;49403;51.046;13.780;2024-02-26T01:48:59;6.80;84.80
63277;DHT22;49403;51.046;13.780;2024-02-26T01:49:31;6.90;84.70
63277;DHT22;49403;51.046;13.780;2024-02-26T01:50:02;6.90;84.80
63277;DHT22;49403;51.046;13.780;2024-02-26T01:50:34;6.90;84.60
63277;DHT22;49403;51.046;13.780;2024-02-26T01:51:05;7.00;84.90
63277;DHT22;49403;51.046;13.780;2024-02-26T01:51:36;6.90;84.80
63277;DHT22;49403;51.046;13.780;2024-02-26T01:52:08;7.00;84.90
63277;DHT22;49403;51.046;13.780;2024-02-26T01:52:40;7.00;84.70
63277;DHT22;49403;51.046;13.780;2024-02-26T01:53:11;7.00;85.00
63277;DHT22;49403;51.046;13.780;2024-02-26T01:53:43;6.90;84.70
63277;DHT22;49403;51.046;13.780;2024-02-26T01:54:14;6.60;84.70
63277;DHT22;49403;51.046;13.780;2024-02-26T01:54:45;7.80;86.00
63277;DHT22;49403;51.046;13.780;2024-02-26T01:55:20;7.00;85.00
63277;DHT22;49403;51.046;13.780;2024-02-26T01:55:53;6.90;85.10
63277;DHT22;49403;51.046;13.780;2024-02-26T01:56:24;6.90;85.50
63277;DHT22;49403;51.046;13.780;2024-02-26T01:57:01;7.80;86.30
63277;DHT22;49403;51.046;13.780;2024-02-26T01:57:32;6.90;85.40
63277;DHT22;49403;51.046;13.780;2024-02-26T01:58:04;6.90;85.90
63277;DHT22;49403;51.046;13.780;2024-02-26T01:58:36;6.80;85.70
63277;DHT22;49403;51.046;13.780;2024-02-26T01:59:08;6.80;86.20
63277;DHT22;49403;51.046;13.780;2024-02-26T01:59:40;6.80;86.40
63277;DHT22;49403;51.046;13.780;2024-02-26T02:00:12;6.80;86.70
63277;DHT22;49403;51.046;13.780;2024-02-26T02:00:45;6.60;85.70
63277;DHT22;49403;51.046;13.780;2024-02-26T02:01:17;6.70;86.20
63277;DHT22;49403;51.046;13.780;2024-02-26T02:01:54;6.70;85.80
63277;DHT22;49403;51.046;13.780;2024-02-26T02:02:25;6.70;85.80
63277;DHT22;49403;51.046;13.780;2024-02-26T02:02:57;6.70;85.80
63277;DHT22;49403;51.046;13.780;2024-02-26T02:03:28;6.50;86.00
63277;DHT22;49403;51.046;13.780;2024-02-26T02:04:00;6.70;86.00
63277;DHT22;49403;51.046;13.780;2024-02-26T02:04:31;6.60;86.40
63277;DHT22;49403;51.046;13.780;2024-02-26T02:05:03;6.60;86.40
63277;DHT22;49403;51.046;13.780;2024-02-26T02:05:34;6.60;86.30
63277;DHT22;49403;51.046;13.780;2024-02-26T02:06:12;6.60;86.30
63277;DHT22;49403;51.046;13.780;2024-02-26T02:06:45;6.60;86.20
63277;DHT22;49403;51.046;13.780;2024-02-26T02:07:17;6.60;86.10
63277;DHT22;49403;51.046;13.780;2024-02-26T02:07:48;6.60;86.00
63277;DHT22;49403;51.046;13.780;2024-02-26T02:08:20;6.60;86.30
63277;DHT22;49403;51.046;13.780;2024-02-26T02:08:51;6.60;86.70
63277;DHT22;49403;51.046;13.780;2024-02-26T02:09:22;6.60;86.70
63277;DHT22;49403;51.046;13.780;2024-02-26T02:09:53;6.60;87.00
63277;DHT22;49403;51.046;13.780;2024-02-26T02:10:25;6.60;86.50
63277;DHT22;49403;51.046;13.780;2024-02-26T02:10:57;6.60;86.30
63277;DHT22;49403;51.046;13.780;2024-02-26T02:11:28;7.40;87.70
63277;DHT22;49403;51.046;13.780;2024-02-26T02:11:59;6.60;87.00
63277;DHT22;49403;51.046;13.780;2024-02-26T02:12:31;6.60;86.30
63277;DHT22;49403;51.046;13.780;2024-02-26T02:13:03;6.60;86.20
63277;DHT22;49403;51.046;13.780;2024-02-26T02:13:34;6.60;86.80
63277;DHT22;49403;51.046;13.780;2024-02-26T02:14:05;6.60;86.50
63277;DHT22;49403;51.046;13.780;2024-02-26T02:14:36;6.60;86.00
63277;DHT22;49403;51.046;13.780;2024-02-26T02:15:07;6.60;86.20
63277;DHT22;49403;51.046;13.780;2024-02-26T02:15:38;6.70;86.20
63277;DHT22;49403;51.046;13.780;2024-02-26T02:16:09;6.40;85.50
63277;DHT22;49403;51.046;13.780;2024-02-26T02:16:40;6.60;86.00
63277;DHT22;49403;51.046;13.780;2024-02-26T02:17:11;6.50;85.80
63277;DHT22;49403;51.046;13.780;2024-02-26T02:17:42;6.60;85.80
63277;DHT22;49403;51.046;13.780;2024-02-26T02:18:13;6.60;85.30
63277;DHT22;49403;51.046;13.780;2024-02-26T02:18:44;6.60;85.60
63277;DHT22;49403;51.046;13.780;2024-02-26T02:19:14;6.70;85.70
63277;DHT22;49403;51.046;13.780;2024-02-26T02:19:45;6.60;85.50
63277;DHT22;49403;51.046;13.780;2024-02-26T02:20:17;6.60;85.50
63277;DHT22;49403;51.046;13.780;2024-02-26T02:20:48;5.50;84.20
63277;DHT22;49403;51.046;13.780;2024-02-26T02:21:19;6.60;85.60
63277;DHT22;49403;51.046;13.780;2024-02-26T02:21:50;6.60;85.60
63277;DHT22;49403;51.046;13.780;2024-02-26T02:22:21;6.60;85.60
63277;DHT22;49403;51.046;13.780;2024-02-26T02:22:51;6.70;85.70
63277;DHT22;49403;51.046;13.780;2024-02-26T02:23:22;6.60;85.70
63277;DHT22;49403;51.046;13.780;2024-02-26T02:23:53;6.70;85.70
63277;DHT22;49403;51.046;13.780;2024-02-26T02:24:24;6.50;85.70
63277;DHT22;49403;51.046;13.780;2024-02-26T02:24:55;6.70;85.90
63277;DHT22;49403;51.046;13.780;2024-02-26T02:25:25;6.70;85.90
63277;DHT22;49403;51.046;13.780;2024-02-26T02:25:57;6.70;85.90
63277;DHT22;49403;51.046;13.780;2024-02-26T02:26:28;6.70;85.60
63277;DHT22;49403;51.046;13.780;2024-02-26T02:26:59;6.70;85.80
63277;DHT22;49403;51.046;13.780;2024-02-26T02:27:30;6.60;85.80
63277;DHT22;49403;51.046;13.780;2024-02-26T02:28:01;6.70;85.80
63277;DHT22;49403;51.046;13.780;2024-02-26T02:28:32;6.70;85.70
63277;DHT22;49403;51.046;13.780;2024-02-26T02:29:03;6.70;85.80
63277;DHT22;49403;51.046;13.780;2024-02-26T02:29:34;6.70;85.50
63277;DHT22;49403;51.046;13.780;2024-02-26T02:30:06;6.60;85.70
63277;DHT22;49403;51.046;13.780;2024-02-26T02:30:38;6.70;85.60
63277;DHT22;49403;51.046;13.780;2024-02-26T02:31:09;6.70;85.60
63277;DHT22;49403;51.046;13.780;2024-02-26T02:31:41;6.70;85.70
63277;DHT22;49403;51.046;13.780;2024-02-26T02:32:12;6.70;86.10
63277;DHT22;49403;51.046;13.780;2024-02-26T02:32:43;6.70;85.70
63277;DHT22;49403;51.046;13.780;2024-02-26T02:33:15;6.40;85.40
63277;DHT22;49403;51.046;13.780;2024-02-26T02:33:46;6.70;85.90
63277;DHT22;49403;51.046;13.780;2024-02-26T02:34:17;6.70;86.00
63277;DHT22;49403;51.046;13.780;2024-02-26T02:34:48;6.70;85.90
63277;DHT22;49403;51.046;13.780;2024-02-26T02:35:19;6.70;85.70
63277;DHT22;49403;51.046;13.780;2024-02-26T02:35:50;6.70;85.50
63277;DHT22;49403;51.046;13.780;2024-02-26T02:36:21;6.70;85.60
63277;DHT22;49403;51.046;13.780;2024-02-26T02:36:52;6.70;85.40
63277;DHT22;49403;51.046;13.780;2024-02-26T02:37:23;6.80;85.20
63277;DHT22;49403;51.046;13.780;2024-02-26T02:37:56;6.80;85.40
63277;DHT22;49403;51.046;13.780;2024-02-26T02:38:27;6.70;85.10
63277;DHT22;49403;51.046;13.780;2024-02-26T02:39:00;6.80;85.50
63277;DHT22;49403;51.046;13.780;2024-02-26T02:39:31;6.70;85.50
63277;DHT22;49403;51.046;13.780;2024-02-26T02:40:02;7.30;86.10
63277;DHT22;49403;51.046;13.780;2024-02-26T02:40:33;6.70;85.20
63277;DHT22;49403;51.046;13.780;2024-02-26T02:41:04;6.70;85.50
63277;DHT22;49403;51.046;13.780;2024-02-26T02:41:35;6.70;85.50
63277;DHT22;49403;51.046;13.780;2024-02-26T02:42:06;5.20;84.10
63277;DHT22;49403;51.046;13.780;2024-02-26T02:42:37;6.70;85.50
63277;DHT22;49403;51.046;13.780;2024-02-26T02:43:08;6.70;85.50
63277;DHT22;49403;51.046;13.780;2024-02-26T02:43:38;6.60;85.40
63277;DHT22;49403;51.046;13.780;2024-02-26T02:44:09;6.70;85.60
63277;DHT22;49403;51.046;13.780;2024-02-26T02:44:40;6.70;85.40
63277;DHT22;49403;51.046;13.780;2024-02-26T02:45:11;6.70;85.40
63277;DHT22;49403;51.046;13.780;2024-02-26T02:45:42;6.70;85.40
63277;DHT22;49403;51.046;13.780;2024-02-26T02:46:12;6.70;85.40
63277;DHT22;49403;51.046;13.780;2024-02-26T02:46:43;6.70;85.60
63277;DHT22;49403;51.046;13.780;2024-02-26T02:47:14;6.70;85.70
63277;DHT22;49403;51.046;13.780;2024-02-26T02:47:45;6.70;85.60
63277;DHT22;49403;51.046;13.780;2024-02-26T02:48:16;6.70;85.50
63277;DHT22;49403;51.046;13.780;2024-02-26T02:48:47;6.70;85.40
63277;DHT22;49403;51.046;13.780;2024-02-26T02:49:17;6.60;85.30
63277;DHT22;49403;51.046;13.780;2024-02-26T02:49:48;6.70;85.20
63277;DHT22;49403;51.046;13.780;2024-02-26T02:50:19;6.60;85.70
63277;DHT22;49403;51.046;13.780;2024-02-26T02:50:50;7.00;85.40
63277;DHT22;49403;51.046;13.780;2024-02-26T02:51:21;6.60;85.10
63277;DHT22;49403;51.046;13.780;2024-02-26T02:51:52;6.50;84.90
63277;DHT22;49403;51.046;13.780;2024-02-26T02:52:24;6.60;84.90
63277;DHT22;49403;51.046;13.780;2024-02-26T02:52:55;6.60;85.00
63277;DHT22;49403;51.046;13.780;2024-02-26T02:53:26;6.60;85.10
63277;DHT22;49403;51.046;13.780;2024-02-26T02:53:57;6.60;85.40
63277;DHT22;49403;51.046;13.780;2024-02-26T02:54:27;6.60;85.40
63277;DHT22;49403;51.046;13.780;2024-02-26T02:54:58;6.60;85.50
63277;DHT22;49403;51.046;13.780;2024-02-26T02:55:29;6.70;85.60
63277;DHT22;49403;51.046;13.780;2024-02-26T02:56:00;6.70;85.60
63277;DHT22;49403;51.046;13.780;2024-02-26T02:56:31;6.70;85.70
63277;DHT22;49403;51.046;13.780;2024-02-26T02:57:02;6.60;85.60
63277;DHT22;49403;51.046;13.780;2024-02-26T02:57:33;6.70;85.40
63277;DHT22;49403;51.046;13.780;2024-02-26T02:58:04;6.60;85.80
63277;DHT22;49403;51.046;13.780;2024-02-26T02:58:35;6.60;85.80
63277;DHT22;49403;51.046;13.780;2024-02-26T02:59:05;6.60;86.10
63277;DHT22;49403;51.046;13.780;2024-02-26T02:59:37;6.60;86.00
63277;DHT22;49403;51.046;13.780;2024-02-26T03:00:09;6.60;86.20
63277;DHT22;49403;51.046;13.780;2024-02-26T03:00:40;6.60;85.70
63277;DHT22;49403;51.046;13.780;2024-02-26T03:01:12;6.60;86.20
63277;DHT22;49403;51.046;13.780;2024-02-26T03:01:43;6.60;85.80
63277;DHT22;49403;51.046;13.780;2024-02-26T03:02:14;6.60;86.10
63277;DHT22;49403;51.046;13.780;2024-02-26T03:02:45;6.60;86.10
63277;DHT22;49403;51.046;13.780;2024-02-26T03:03:16;6.60;86.30
63277;DHT22;49403;51.046;13.780;2024-02-26T03:03:47;6.50;86.30
63277;DHT22;49403;51.046;13.780;2024-02-26T03:04:18;6.60;86.30
63277;DHT22;49403;51.046;13.780;2024-02-26T03:04:49;6.50;86.30
63277;DHT22;49403;51.046;13.780;2024-02-26T03:05:19;8.20;87.90
63277;DHT22;49403;51.046;13.780;2024-02-26T03:05:50;6.50;86.50
63277;DHT22;49403;51.046;13.780;2024-02-26T03:06:21;6.50;86.50
63277;DHT22;49403;51.046;13.780;2024-02-26T03:06:52;6.50;86.80
63277;DHT22;49403;51.046;13.780;2024-02-26T03:07:23;6.40;86.90
63277;DHT22;49403;51.046;13.780;2024-02-26T03:07:53;6.40;87.10
63277;DHT22;49403;51.046;13.780;2024-02-26T03:08:24;6.40;87.40
63277;DHT22;49403;51.046;13.780;2024-02-26T03:08:56;6.40;87.70
63277;DHT22;49403;51.046;13.780;2024-02-26T03:09:27;6.40;87.80
63277;DHT22;49403;51.046;13.780;2024-02-26T03:09:58;6.40;87.60
63277;DHT22;49403;51.046;13.780;2024-02-26T03:10:28;6.40;87.70
63277;DHT22;49403;51.046;13.780;2024-02-26T03:10:59;6.40;87.70
63277;DHT22;49403;51.046;13.780;2024-02-26T03:11:30;6.10;87.70
63277;DHT22;49403;51.046;13.780;2024-02-26T03:12:01;6.40;88.60
63277;DHT22;49403;51.046;13.780;2024-02-26T03:12:33;6.40;88.00
63277;DHT22;49403;51.046;13.780;2024-02-26T03:13:04;6.40;87.90
63277;DHT22;49403;51.046;13.780;2024-02-26T03:13:35;6.40;88.50
63277;DHT22;49403;51.046;13.780;2024-02-26T03:14:06;6.40;88.70
63277;DHT22;49403;51.046;13.780;2024-02-26T03:14:36;5.50;87.90
63277;DHT22;49403;51.046;13.780;2024-02-26T03:15:07;6.40;88.50
63277;DHT22;49403;51.046;13.780;2024-02-26T03:15:38;6.40;88.20
63277;DHT22;49403;51.046;13.780;2024-02-26T03:16:09;6.40;88.30
63277;DHT22;49403;51.046;13.780;2024-02-26T03:16:40;6.40;87.70